createdAt,value
2024-01-03T06:20:55.502Z,0.373
2024-01-03T06:27:18.377Z,0.747
2024-01-03T06:30:17.176Z,1.494
2024-01-03T06:33:05.641Z,2.241
2024-01-03T06:35:54.041Z,3.735
2024-01-03T06:39:08.007Z,6.349
2024-01-03T06:41:51.215Z,10.831
2024-01-03T06:44:29.411Z,13.072
2024-01-03T06:47:02.569Z,20.542
2024-01-03T06:49:40.958Z,27.265
2024-01-03T06:52:19.093Z,37.723
2024-01-03T06:54:52.262Z,50.796
2024-01-03T06:57:30.499Z,70.965
2024-01-03T07:00:03.896Z,97.11
2024-01-03T07:02:57.217Z,112.05
2024-01-03T07:05:40.591Z,162.099
2024-01-03T07:08:34.139Z,292.824
2024-01-03T07:11:22.587Z,303.282
2024-01-03T07:14:00.860Z,363.042
2024-01-03T07:16:39.036Z,481.068
2024-01-03T07:19:27.513Z,525.888
2024-01-03T07:22:05.824Z,537.84
2024-01-03T07:24:38.945Z,621.504
2024-01-03T07:27:17.202Z,755.964
2024-01-03T07:29:55.500Z,770.904
2024-01-03T07:32:49.177Z,788.832
2024-01-03T07:35:32.541Z,908.352
2024-01-03T07:38:10.965Z,1009.944
2024-01-03T07:40:49.020Z,1195.2
2024-01-03T07:43:27.218Z,1165.32
2024-01-03T07:46:31.032Z,1254.96
2024-01-03T07:49:09.437Z,1189.224
2024-01-03T07:51:42.381Z,1248.984
2024-01-03T07:54:15.557Z,1452.168
2024-01-03T07:57:09.115Z,2725.056
2024-01-03T07:59:42.282Z,2438.208
2024-01-03T08:02:25.774Z,3585.6
2024-01-03T08:05:08.995Z,3585.6
2024-01-03T08:07:42.033Z,4302.72
2024-01-03T08:10:15.280Z,4804.704
2024-01-03T08:12:58.605Z,3633.408
2024-01-03T08:15:41.853Z,3250.944
2024-01-03T08:18:15.251Z,3752.928
2024-01-03T08:21:08.646Z,5426.208
2024-01-03T08:23:50.028Z,3944.16
2024-01-03T08:26:28.993Z,6549.696
2024-01-03T08:29:01.889Z,3442.176
2024-01-03T08:31:33.472Z,5450.112
2024-01-03T08:34:41.842Z,4087.584
2024-01-03T08:37:39.601Z,6645.312
2024-01-03T08:40:57.825Z,4087.584
2024-01-03T08:43:46.357Z,5258.88
2024-01-03T08:46:24.617Z,6167.232
2024-01-03T08:49:03.092Z,6167.232
2024-01-03T08:51:41.258Z,6597.504
2024-01-03T08:54:14.395Z,6215.04
2024-01-03T08:56:57.787Z,4326.624
2024-01-03T08:59:30.898Z,5211.072
2024-01-03T09:02:09.118Z,5665.248
2024-01-03T09:04:52.502Z,5426.208
2024-01-03T09:07:51.127Z,4900.32
2024-01-03T09:10:34.452Z,4111.488
2024-01-03T09:13:17.798Z,4972.032
2024-01-03T09:15:50.926Z,5402.304
2024-01-03T09:18:24.221Z,6215.04
2024-01-03T09:20:57.343Z,4565.664
2024-01-03T09:23:35.547Z,2999.952
2024-01-03T09:26:18.982Z,3561.696
2024-01-03T09:29:07.309Z,3848.544
2024-01-03T09:31:45.589Z,4876.416
2024-01-03T09:34:28.972Z,3920.256
2024-01-03T09:37:02.115Z,5019.84
2024-01-03T09:39:45.371Z,5569.632
2024-01-03T09:42:23.902Z,5545.728
2024-01-03T09:44:56.904Z,6262.848
2024-01-03T09:47:35.129Z,4326.624
2024-01-03T09:50:08.218Z,6549.696
2024-01-03T09:52:41.256Z,7936.128
2024-01-03T09:55:19.568Z,9083.52
2024-01-03T09:58:33.525Z,7936.128
2024-01-03T10:01:06.921Z,7219.008
2024-01-03T10:03:50.177Z,8270.784
2024-01-03T10:06:23.373Z,8366.4
2024-01-03T10:08:56.498Z,8175.168
2024-01-03T10:11:29.911Z,8414.208
2024-01-03T10:14:07.920Z,9848.448
2024-01-03T10:16:41.061Z,9513.792
2024-01-03T10:19:14.481Z,8414.208
2024-01-03T10:21:52.582Z,8844.48
2024-01-03T10:24:41.008Z,9131.328
2024-01-03T10:27:14.283Z,8557.632
2024-01-03T10:29:48.833Z,7266.816
2024-01-03T10:32:20.650Z,4374.432
2024-01-03T10:35:09.152Z,1888.416
2024-01-03T10:37:54.687Z,950.184
2024-01-03T10:40:32.999Z,1260.936
2024-01-03T10:43:16.396Z,1601.568
2024-01-03T10:45:59.809Z,2187.216
2024-01-03T10:48:43.153Z,3370.464
2024-01-03T10:51:16.244Z,5474.016
2024-01-03T10:53:49.378Z,5760.864
2024-01-03T10:56:27.641Z,4278.816
2024-01-03T10:59:31.335Z,5426.208
2024-01-03T11:02:04.447Z,7075.584
2024-01-03T11:04:52.945Z,10708.992
2024-01-03T11:07:26.051Z,11139.264
2024-01-03T11:10:04.329Z,11521.728
2024-01-03T11:12:37.474Z,10661.184
2024-01-03T11:15:10.726Z,8796.672
2024-01-03T11:17:46.912Z,5760.864
2024-01-03T11:20:20.021Z,4924.224
2024-01-03T11:22:53.139Z,6119.424
2024-01-03T11:25:36.380Z,6740.928
2024-01-03T11:28:14.700Z,3370.464
2024-01-03T11:30:47.835Z,11665.152
2024-01-03T11:33:24.198Z,10374.336
2024-01-03T11:35:55.014Z,20653.056
2024-01-03T11:38:25.873Z,21991.68
2024-01-03T11:41:20.409Z,9705.024
2024-01-03T11:43:54.658Z,10708.992
2024-01-03T11:46:43.113Z,8079.552
2024-01-03T11:49:16.603Z,8509.824
2024-01-03T11:51:49.314Z,12908.16
2024-01-03T11:54:20.935Z,5928.192
2024-01-03T11:56:54.083Z,4685.184
2024-01-03T11:59:32.370Z,2784.816
2024-01-03T12:02:10.519Z,3035.808
2024-01-03T12:04:43.743Z,3035.808
2024-01-03T12:07:16.986Z,3131.424
2024-01-03T12:09:50.066Z,3274.848
2024-01-03T12:12:23.224Z,3776.832
2024-01-03T12:14:56.499Z,3561.696
2024-01-03T12:17:29.646Z,2796.768
2024-01-03T12:20:02.955Z,3107.52
2024-01-03T12:22:46.136Z,2605.536
2024-01-03T12:25:24.305Z,2569.68
2024-01-03T12:27:57.482Z,2330.64
2024-01-03T12:30:30.752Z,2725.056
2024-01-03T12:33:03.922Z,3155.328
2024-01-03T12:35:57.429Z,2916.288
2024-01-03T12:38:30.607Z,2760.912
2024-01-03T12:41:29.176Z,3729.024
2024-01-03T12:44:07.442Z,3991.968
2024-01-03T12:46:40.461Z,4732.992
2024-01-03T12:49:13.720Z,5354.496
2024-01-03T12:51:51.710Z,3561.696
2024-01-03T12:54:30.026Z,5306.688
2024-01-03T12:57:03.341Z,11999.808
2024-01-03T12:59:41.730Z,9322.56
2024-01-03T13:02:14.744Z,5306.688
2024-01-03T13:04:47.966Z,9991.872
2024-01-03T13:07:26.165Z,8222.976
2024-01-03T13:10:12.990Z,4039.776
2024-01-03T13:13:06.502Z,3059.712
2024-01-03T13:15:39.669Z,3394.368
2024-01-03T13:18:18.055Z,3274.848
2024-01-03T13:20:51.186Z,2462.112
2024-01-03T13:23:34.516Z,3227.04
2024-01-03T13:26:07.642Z,5258.88
2024-01-03T13:28:45.976Z,6262.848
2024-01-03T13:31:26.596Z,7362.432
2024-01-03T13:34:07.959Z,12238.848
2024-01-03T13:36:40.056Z,6836.544
2024-01-03T13:39:12.032Z,4613.472
2024-01-03T13:41:46.954Z,12908.16
2024-01-03T13:44:17.734Z,12716.928
2024-01-03T13:46:48.311Z,10708.992
2024-01-03T13:49:29.128Z,7219.008
2024-01-03T13:52:16.952Z,3824.64
2024-01-03T13:55:03.268Z,3047.76
2024-01-03T13:57:41.486Z,2187.216
2024-01-03T14:00:24.835Z,1601.568
2024-01-03T14:03:13.481Z,1517.904
2024-01-03T14:05:46.460Z,1344.6
2024-01-03T14:08:29.674Z,1494
2024-01-03T14:11:07.861Z,854.568
2024-01-03T14:13:51.195Z,717.12
2024-01-03T14:16:24.298Z,720.108
2024-01-03T14:19:02.653Z,534.852
2024-01-03T14:21:51.135Z,525.888
2024-01-03T14:24:24.294Z,561.744
2024-01-03T14:27:02.293Z,1099.584
2024-01-03T14:29:35.370Z,968.112
2024-01-03T14:32:14.101Z,1356.552
2024-01-03T14:34:54.101Z,1960.128
2024-01-03T14:37:37.377Z,1135.44
2024-01-03T14:40:35.988Z,645.408
2024-01-03T14:43:29.534Z,720.108
2024-01-03T14:46:07.857Z,884.448
2024-01-03T14:48:41.224Z,1165.32
2024-01-03T14:51:19.292Z,1069.704
2024-01-03T14:54:17.920Z,890.424
2024-01-03T14:56:56.186Z,747
2024-01-03T14:59:34.319Z,744.012
2024-01-03T15:02:33.041Z,570.708
2024-01-03T15:05:04.369Z,501.984
2024-01-03T15:08:03.001Z,421.308
2024-01-03T15:10:36.158Z,370.512
2024-01-03T15:13:09.463Z,319.716
2024-01-03T15:15:42.481Z,267.426
2024-01-03T15:18:15.749Z,218.124
2024-01-03T15:20:48.833Z,177.786
2024-01-03T15:23:22.020Z,140.436
2024-01-03T15:25:55.076Z,103.833
2024-01-03T15:28:33.326Z,73.579
2024-01-03T15:31:16.674Z,52.663
2024-01-03T15:33:55.035Z,36.976
2024-01-03T15:36:28.097Z,25.771
2024-01-03T15:39:21.588Z,17.181
2024-01-03T15:41:59.813Z,11.205
2024-01-03T15:44:38.073Z,6.349
2024-01-03T15:47:11.217Z,4.482
2024-01-03T15:50:20.010Z,2.614
2024-01-03T15:53:03.407Z,1.494
2024-01-03T15:55:46.733Z,1.12
2024-01-03T15:58:50.558Z,0.373
2024-01-03T16:05:49.043Z,0
